Time;durP1;ratioP1;P1;durP2;ratioP2;P2;SDS_P1;SDS_P2;PMS_P1;PMS_P2;Temp;Humidity;BMP_temperature;BMP_pressure;BME280_temperature;BME280_humidity;BME280_pressure;Samples;Min_cycle;Max_cycle;Signal;HPM_P1;HPM_P2
2023/06/27 00:00:25;;;;;;;1.73;1.63;;;23.00;57.60;;;;;;4972717;28;20506;-81
2023/06/27 00:02:55;;;;;;;1.87;1.60;;;22.90;57.80;;;;;;4971583;28;20464;-81
2023/06/27 00:05:24;;;;;;;3.03;1.70;;;22.60;59.00;;;;;;4971745;28;20999;-81
2023/06/27 00:07:52;;;;;;;1.90;1.80;;;22.30;59.80;;;;;;4972561;28;21123;-82
2023/06/27 00:10:22;;;;;;;2.50;1.93;;;22.10;60.20;;;;;;4970198;28;20467;-82
2023/06/27 00:12:53;;;;;;;2.10;1.57;;;21.90;60.80;;;;;;4971100;28;20653;-82
2023/06/27 00:15:21;;;;;;;3.27;1.80;;;21.80;60.70;;;;;;4971881;28;20455;-81
2023/06/27 00:17:51;;;;;;;1.60;1.50;;;21.70;61.10;;;;;;4971630;28;20487;-82
2023/06/27 00:20:20;;;;;;;5.20;2.10;;;21.80;60.90;;;;;;4972500;28;20477;-83
2023/06/27 00:22:48;;;;;;;1.63;1.53;;;21.90;60.90;;;;;;4963958;28;20487;-82
2023/06/27 00:25:17;;;;;;;4.73;1.60;;;21.80;60.80;;;;;;4970904;28;20463;-81
2023/06/27 00:27:47;;;;;;;1.70;1.60;;;21.90;60.80;;;;;;4971870;28;20459;-81
2023/06/27 00:30:15;;;;;;;2.93;1.83;;;21.70;61.10;;;;;;4968294;28;20525;-82
2023/06/27 00:32:43;;;;;;;2.10;1.80;;;21.70;61.20;;;;;;4970848;28;20513;-81
2023/06/27 00:35:14;;;;;;;2.00;1.80;;;21.80;61.60;;;;;;4963345;28;21009;-82
2023/06/27 00:37:42;;;;;;;2.03;1.63;;;21.70;62.30;;;;;;4971688;28;20482;-81
2023/06/27 00:40:11;;;;;;;2.23;1.70;;;21.70;62.30;;;;;;4969896;28;20478;-82
2023/06/27 00:42:39;;;;;;;3.33;2.10;;;21.70;62.20;;;;;;4971197;28;20582;-81
2023/06/27 00:45:10;;;;;;;1.90;1.80;;;21.70;62.50;;;;;;4968261;28;20502;-81
2023/06/27 00:47:38;;;;;;;2.13;1.60;;;21.70;62.80;;;;;;4969451;28;20501;-81
2023/06/27 00:50:08;;;;;;;2.90;1.90;;;21.70;63.00;;;;;;4952843;28;20481;-81
2023/06/27 00:52:38;;;;;;;2.63;2.00;;;21.60;63.40;;;;;;4972748;28;21723;-81
2023/06/27 00:55:08;;;;;;;2.13;2.03;;;21.50;63.60;;;;;;4959500;28;20470;-81
2023/06/27 00:57:36;;;;;;;2.87;1.90;;;21.50;63.90;;;;;;4970939;28;20515;-81
2023/06/27 01:00:12;;;;;;;2.40;2.10;;;21.40;64.20;;;;;;4954652;28;20472;-81
2023/06/27 01:02:40;;;;;;;4.07;1.90;;;21.40;64.30;;;;;;4971790;28;21016;-82
2023/06/27 01:05:09;;;;;;;5.07;2.30;;;21.50;64.00;;;;;;4969864;28;20462;-81
2023/06/27 01:07:43;;;;;;;2.10;1.87;;;21.50;63.90;;;;;;4971543;28;20558;-82
2023/06/27 01:10:16;;;;;;;4.07;2.17;;;21.50;63.70;;;;;;4972115;28;20458;-81
2023/06/27 01:12:51;;;;;;;1.97;1.80;;;21.50;63.80;;;;;;4969787;28;20451;-81
2023/06/27 01:15:21;;;;;;;2.97;2.10;;;21.50;63.70;;;;;;4971772;28;20528;-81
2023/06/27 01:17:51;;;;;;;3.10;2.00;;;21.40;63.80;;;;;;4970487;28;21433;-82
2023/06/27 01:20:21;;;;;;;2.70;1.87;;;21.40;64.00;;;;;;4971773;28;20936;-81
2023/06/27 01:23:02;;;;;;;2.27;1.93;;;21.30;63.60;;;;;;4971023;28;21104;-82
2023/06/27 01:25:32;;;;;;;2.37;2.17;;;21.20;64.00;;;;;;4971998;28;20453;-82
2023/06/27 01:28:01;;;;;;;2.70;1.93;;;21.20;63.90;;;;;;4971096;28;20456;-82
2023/06/27 01:30:33;;;;;;;5.33;2.30;;;21.30;63.90;;;;;;4970221;28;20533;-81
2023/06/27 01:33:06;;;;;;;2.47;1.90;;;21.40;63.40;;;;;;4965401;28;20454;-82
2023/06/27 01:35:42;;;;;;;4.47;4.10;;;21.50;63.40;;;;;;4971795;28;20507;-81
2023/06/27 01:38:19;;;;;;;2.30;1.77;;;21.40;63.10;;;;;;4969487;28;20892;-82
2023/06/27 01:40:50;;;;;;;4.10;2.23;;;21.50;63.30;;;;;;4951975;28;20458;-84
2023/06/27 01:43:20;;;;;;;2.63;1.97;;;21.50;63.30;;;;;;4969916;28;20494;-81
2023/06/27 01:45:49;;;;;;;2.00;1.70;;;21.50;63.20;;;;;;4968565;28;20951;-83
2023/06/27 01:48:18;;;;;;;2.93;1.90;;;21.50;63.00;;;;;;4971060;28;20455;-81
2023/06/27 01:50:46;;;;;;;3.53;2.07;;;21.60;62.90;;;;;;4967321;28;20515;-82
2023/06/27 01:53:15;;;;;;;2.70;1.73;;;21.50;62.80;;;;;;4967479;28;20463;-81
2023/06/27 01:55:45;;;;;;;2.03;1.90;;;21.40;63.00;;;;;;4970192;28;20463;-81
2023/06/27 01:58:15;;;;;;;3.10;1.67;;;21.30;63.40;;;;;;4963385;28;20521;-81
2023/06/27 02:00:45;;;;;;;3.03;1.60;;;21.20;63.30;;;;;;4944415;28;21038;-81
2023/06/27 02:03:13;;;;;;;3.47;2.00;;;21.10;63.80;;;;;;4952381;28;20529;-81
2023/06/27 02:05:42;;;;;;;2.00;1.87;;;20.90;64.20;;;;;;4970613;28;20494;-81
2023/06/27 02:08:10;;;;;;;3.10;2.07;;;20.90;64.70;;;;;;4970461;28;20544;-81
2023/06/27 02:10:38;;;;;;;4.73;2.17;;;20.80;65.10;;;;;;4955618;28;20459;-81
2023/06/27 02:13:09;;;;;;;5.53;2.17;;;20.80;65.20;;;;;;4969954;28;20474;-82
2023/06/27 02:15:40;;;;;;;2.80;2.40;;;20.70;65.40;;;;;;4971386;28;20450;-81
2023/06/27 02:18:08;;;;;;;2.37;1.90;;;20.60;65.60;;;;;;4969502;28;20478;-82
2023/06/27 02:20:36;;;;;;;2.20;1.83;;;20.50;65.70;;;;;;4963567;28;20466;-81
2023/06/27 02:23:05;;;;;;;2.70;2.50;;;20.40;65.90;;;;;;4965218;28;20487;-81
2023/06/27 02:25:33;;;;;;;2.73;2.27;;;20.30;66.00;;;;;;4972977;28;20517;-81
2023/06/27 02:28:01;;;;;;;3.03;1.67;;;20.30;66.40;;;;;;4973658;28;20949;-82
2023/06/27 02:30:29;;;;;;;4.20;2.10;;;20.30;66.30;;;;;;4969184;28;21058;-81
2023/06/27 02:32:59;;;;;;;6.03;2.30;;;20.40;66.10;;;;;;4971098;28;21204;-81
2023/06/27 02:35:27;;;;;;;2.87;2.00;;;20.40;66.00;;;;;;4972063;28;20536;-82
2023/06/27 02:37:55;;;;;;;2.50;2.30;;;20.50;66.20;;;;;;4974611;28;20573;-82
2023/06/27 02:40:24;;;;;;;4.40;1.80;;;20.50;65.90;;;;;;4974105;28;20458;-81
2023/06/27 02:42:52;;;;;;;2.53;1.80;;;20.60;65.90;;;;;;4972762;28;20579;-81
2023/06/27 02:45:23;;;;;;;3.60;3.00;;;20.60;65.90;;;;;;4955077;28;20466;-81
2023/06/27 02:47:52;;;;;;;4.77;1.93;;;20.60;66.20;;;;;;4972920;28;20922;-82
2023/06/27 02:50:21;;;;;;;3.33;2.10;;;20.60;66.30;;;;;;4956768;28;20546;-82
2023/06/27 02:52:49;;;;;;;4.50;2.10;;;20.60;66.30;;;;;;4973794;28;20513;-82
2023/06/27 02:55:18;;;;;;;8.30;2.50;;;20.50;66.50;;;;;;4972625;28;20468;-81
2023/06/27 02:57:46;;;;;;;2.70;2.20;;;20.50;67.00;;;;;;4971857;28;20504;-81
2023/06/27 03:00:16;;;;;;;2.57;1.97;;;20.40;66.80;;;;;;4972863;28;20458;-81
2023/06/27 03:02:44;;;;;;;2.60;2.40;;;20.40;67.10;;;;;;4972869;28;20468;-81
2023/06/27 03:05:13;;;;;;;3.07;2.53;;;20.30;67.90;;;;;;4963329;28;20481;-81
2023/06/27 03:07:43;;;;;;;2.10;1.90;;;20.30;67.90;;;;;;4974773;28;20532;-81
2023/06/27 03:10:11;;;;;;;4.40;3.00;;;20.30;67.90;;;;;;4973117;28;20469;-82
2023/06/27 03:12:40;;;;;;;3.20;2.50;;;20.30;67.60;;;;;;4963113;28;20595;-82
2023/06/27 03:15:09;;;;;;;6.57;3.17;;;20.30;67.60;;;;;;4970739;28;20489;-82
2023/06/27 03:17:38;;;;;;;3.80;1.73;;;20.40;67.10;;;;;;4953013;29;20475;-81
2023/06/27 03:20:11;;;;;;;4.50;2.47;;;20.40;67.10;;;;;;4959240;28;20463;-82
2023/06/27 03:22:39;;;;;;;2.77;1.60;;;20.50;67.10;;;;;;4962243;28;20529;-82
2023/06/27 03:25:10;;;;;;;2.73;2.30;;;20.50;66.80;;;;;;4974183;28;20442;-81
2023/06/27 03:27:38;;;;;;;3.37;2.33;;;20.60;66.90;;;;;;4972741;28;20454;-81
2023/06/27 03:30:09;;;;;;;2.60;2.17;;;20.60;66.90;;;;;;4957718;28;20471;-81
2023/06/27 03:32:39;;;;;;;2.67;2.17;;;20.60;66.70;;;;;;4965254;28;20470;-82
2023/06/27 03:35:08;;;;;;;3.23;2.30;;;20.60;66.90;;;;;;4964980;28;20854;-81
2023/06/27 03:37:36;;;;;;;3.53;2.40;;;20.60;67.10;;;;;;4968971;28;20466;-81
2023/06/27 03:40:05;;;;;;;2.53;2.30;;;20.60;67.00;;;;;;4970835;28;20461;-81
2023/06/27 03:42:36;;;;;;;2.57;2.03;;;20.60;66.90;;;;;;4953644;28;20459;-82
2023/06/27 03:45:05;;;;;;;4.07;2.80;;;20.60;66.80;;;;;;4956745;28;20466;-82
2023/06/27 03:47:34;;;;;;;1.90;1.80;;;20.60;67.00;;;;;;4971169;28;20930;-81
2023/06/27 03:50:02;;;;;;;2.00;1.90;;;20.70;66.90;;;;;;4972660;28;20493;-82
2023/06/27 03:52:30;;;;;;;2.53;1.90;;;20.50;67.70;;;;;;4948439;29;20967;-82
2023/06/27 03:54:59;;;;;;;4.23;3.17;;;20.40;68.10;;;;;;4953597;29;20467;-81
2023/06/27 03:57:27;;;;;;;3.07;2.57;;;20.40;68.50;;;;;;4952919;28;20532;-81
2023/06/27 03:59:57;;;;;;;2.37;2.20;;;20.30;68.70;;;;;;4969335;28;20514;-82
2023/06/27 04:02:28;;;;;;;5.27;2.50;;;20.30;69.00;;;;;;4955613;28;20561;-81
2023/06/27 04:04:56;;;;;;;3.27;2.97;;;20.30;68.80;;;;;;4959458;28;20941;-81
2023/06/27 04:07:25;;;;;;;2.70;2.43;;;20.30;68.80;;;;;;4952400;28;20506;-82
2023/06/27 04:09:53;;;;;;;2.53;1.97;;;20.30;68.50;;;;;;4953185;29;20820;-81
2023/06/27 04:12:21;;;;;;;3.87;2.23;;;20.40;68.20;;;;;;4970478;28;20747;-82
2023/06/27 04:14:49;;;;;;;3.03;2.03;;;20.40;67.90;;;;;;4973331;28;20457;-81
2023/06/27 04:17:19;;;;;;;3.90;2.23;;;20.50;67.80;;;;;;4952210;28;20522;-82
2023/06/27 04:19:47;;;;;;;6.43;2.30;;;20.50;67.80;;;;;;4969364;28;20474;-81
2023/06/27 04:22:15;;;;;;;5.17;2.00;;;20.60;67.90;;;;;;4971655;28;20528;-81
2023/06/27 04:24:44;;;;;;;3.57;2.80;;;20.80;67.60;;;;;;4966266;28;20462;-82
2023/06/27 04:27:12;;;;;;;2.73;2.53;;;20.90;67.20;;;;;;4970065;28;20454;-82
2023/06/27 04:29:40;;;;;;;3.23;2.50;;;21.00;67.00;;;;;;4971618;28;20489;-84
2023/06/27 04:32:09;;;;;;;4.20;2.50;;;20.90;67.50;;;;;;4967631;28;20978;-81
2023/06/27 04:34:39;;;;;;;2.57;2.37;;;20.80;67.80;;;;;;4960144;28;20793;-81
2023/06/27 04:37:07;;;;;;;3.50;3.20;;;20.80;67.60;;;;;;4968862;28;20969;-81
2023/06/27 04:39:35;;;;;;;3.20;2.40;;;20.80;67.50;;;;;;4967457;28;20513;-81
2023/06/27 04:42:03;;;;;;;2.60;2.33;;;20.80;67.80;;;;;;4963203;28;20554;-81
2023/06/27 04:44:31;;;;;;;3.00;2.50;;;20.70;67.90;;;;;;4961267;28;20984;-82
2023/06/27 04:47:00;;;;;;;2.53;2.33;;;20.80;68.00;;;;;;4962827;28;20469;-83
2023/06/27 04:49:28;;;;;;;2.90;2.47;;;20.80;68.00;;;;;;4968519;28;20541;-80
2023/06/27 04:51:58;;;;;;;4.30;2.90;;;20.80;67.60;;;;;;4966083;28;20467;-81
2023/06/27 04:54:26;;;;;;;5.03;2.93;;;20.80;67.80;;;;;;4967711;28;20463;-81
2023/06/27 04:56:54;;;;;;;2.63;1.80;;;20.80;68.20;;;;;;4967350;28;20966;-81
2023/06/27 04:59:39;;;;;;;2.90;1.93;;;21.00;68.10;;;;;;4969731;28;20481;-81
2023/06/27 05:02:08;;;;;;;2.33;2.07;;;21.60;67.80;;;;;;4964527;28;20551;-82
2023/06/27 05:04:36;;;;;;;2.10;1.50;;;22.00;67.40;;;;;;4971818;28;20466;-82
2023/06/27 05:07:06;;;;;;;5.83;2.37;;;22.40;67.10;;;;;;4970334;28;20521;-82
2023/06/27 05:09:34;;;;;;;2.87;2.10;;;22.70;67.10;;;;;;4969195;28;20474;-84
2023/06/27 05:12:03;;;;;;;2.60;2.30;;;23.00;66.80;;;;;;4967473;28;20462;-83
2023/06/27 05:14:31;;;;;;;2.10;2.00;;;23.30;65.20;;;;;;4964016;28;20790;-84
2023/06/27 05:16:59;;;;;;;4.07;2.73;;;23.40;63.90;;;;;;4971791;28;20442;-84
2023/06/27 05:19:28;;;;;;;2.20;1.90;;;23.50;64.20;;;;;;4969485;28;20485;-83
2023/06/27 05:21:56;;;;;;;3.43;2.23;;;23.50;64.80;;;;;;4964236;28;20666;-83
2023/06/27 05:24:25;;;;;;;2.90;2.53;;;23.60;65.10;;;;;;4967517;28;20469;-83
2023/06/27 05:26:53;;;;;;;2.20;2.10;;;23.70;63.90;;;;;;4964965;28;20947;-83
2023/06/27 05:29:22;;;;;;;4.93;2.10;;;23.70;64.00;;;;;;4970255;28;20505;-82
2023/06/27 05:31:54;;;;;;;4.43;2.67;;;23.60;64.50;;;;;;4964627;28;20823;-83
2023/06/27 05:34:22;;;;;;;3.90;2.63;;;23.70;65.60;;;;;;4960014;28;20491;-82
2023/06/27 05:36:51;;;;;;;2.90;2.37;;;24.00;64.90;;;;;;4952532;28;20816;-83
2023/06/27 05:39:19;;;;;;;4.80;2.70;;;24.30;64.30;;;;;;4967861;28;20495;-82
2023/06/27 05:41:49;;;;;;;5.33;2.50;;;24.50;63.80;;;;;;4970365;28;20458;-82
2023/06/27 05:44:17;;;;;;;6.80;2.83;;;24.80;63.10;;;;;;4968232;28;20512;-82
2023/06/27 05:46:48;;;;;;;4.60;2.70;;;25.00;62.60;;;;;;4968342;28;20459;-83
2023/06/27 05:49:17;;;;;;;2.93;2.47;;;25.10;62.20;;;;;;4971525;28;20586;-82
2023/06/27 05:51:45;;;;;;;3.43;2.97;;;25.30;61.90;;;;;;4966835;28;20467;-84
2023/06/27 05:54:13;;;;;;;3.70;2.60;;;25.40;61.70;;;;;;4966219;28;20961;-82
2023/06/27 05:56:41;;;;;;;3.83;2.77;;;25.50;61.50;;;;;;4970331;28;20463;-82
2023/06/27 05:59:11;;;;;;;8.70;4.67;;;25.50;61.40;;;;;;4972506;28;20478;-83
2023/06/27 06:01:40;;;;;;;11.70;4.73;;;25.60;62.00;;;;;;4971347;28;20649;-83
2023/06/27 06:04:10;;;;;;;12.63;5.40;;;25.70;63.40;;;;;;4970132;28;20552;-83
2023/06/27 06:06:38;;;;;;;9.47;4.07;;;25.70;63.50;;;;;;4968729;28;20641;-82
2023/06/27 06:13:07;;;;;;;3.80;2.90;;;25.80;63.40;;;;;;4969794;28;20444;-82
2023/06/27 06:15:36;;;;;;;5.47;2.57;;;25.90;62.70;;;;;;4973669;28;20868;-83
2023/06/27 06:18:05;;;;;;;5.03;3.00;;;25.90;62.40;;;;;;4965783;28;20901;-82
2023/06/27 06:20:33;;;;;;;5.20;3.20;;;26.00;62.10;;;;;;4967911;28;20577;-83
2023/06/27 06:23:01;;;;;;;5.43;2.90;;;26.00;61.80;;;;;;4969408;28;20561;-83
2023/06/27 06:25:30;;;;;;;3.10;2.40;;;26.00;61.60;;;;;;4972859;28;20469;-82
2023/06/27 06:27:58;;;;;;;3.80;2.33;;;26.10;61.40;;;;;;4970629;28;20473;-82
2023/06/27 06:30:26;;;;;;;3.10;2.63;;;26.10;61.40;;;;;;4972676;28;20473;-82
2023/06/27 06:32:55;;;;;;;9.43;3.57;;;26.10;61.20;;;;;;4969030;28;20468;-82
2023/06/27 06:35:24;;;;;;;3.80;2.80;;;26.20;61.20;;;;;;4971902;28;20510;-82
2023/06/27 06:37:52;;;;;;;3.47;2.33;;;26.20;61.10;;;;;;4969662;28;20478;-82
2023/06/27 06:40:21;;;;;;;3.63;3.10;;;26.20;61.00;;;;;;4970156;28;20807;-83
2023/06/27 06:42:50;;;;;;;4.57;2.70;;;26.30;60.90;;;;;;4970125;28;20485;-83
2023/06/27 06:45:18;;;;;;;3.87;3.33;;;26.30;60.80;;;;;;4967857;28;20525;-82
2023/06/27 06:47:46;;;;;;;2.57;2.37;;;26.30;60.80;;;;;;4971020;28;20514;-82
2023/06/27 06:50:16;;;;;;;3.20;2.40;;;26.20;60.70;;;;;;4972476;28;20461;-82
2023/06/27 06:52:44;;;;;;;3.87;2.40;;;26.30;60.60;;;;;;4973808;28;20449;-82
2023/06/27 06:55:13;;;;;;;4.67;3.03;;;26.30;60.60;;;;;;4972858;28;20466;-82
2023/06/27 06:57:41;;;;;;;2.77;1.90;;;26.30;60.40;;;;;;4974191;28;20442;-82
2023/06/27 07:00:10;;;;;;;2.33;2.23;;;26.30;60.20;;;;;;4971389;28;20530;-82
2023/06/27 07:02:38;;;;;;;2.13;1.93;;;26.30;60.10;;;;;;4972862;28;20899;-82
2023/06/27 07:05:08;;;;;;;2.80;2.60;;;26.40;59.90;;;;;;4974415;28;20472;-82
2023/06/27 07:07:38;;;;;;;2.97;2.50;;;26.40;59.80;;;;;;4974157;28;20487;-83
2023/06/27 07:10:07;;;;;;;2.63;2.30;;;26.40;58.90;;;;;;4972230;28;20454;-83
2023/06/27 07:12:36;;;;;;;6.60;2.37;;;26.50;59.20;;;;;;4971950;28;20530;-83
2023/06/27 07:15:04;;;;;;;2.17;1.97;;;26.50;59.30;;;;;;4974028;28;20442;-83
2023/06/27 07:17:33;;;;;;;3.60;2.27;;;26.60;59.20;;;;;;4969711;28;20505;-83
2023/06/27 07:20:04;;;;;;;2.67;1.80;;;26.60;59.30;;;;;;4972363;28;20481;-83
2023/06/27 07:22:32;;;;;;;2.33;2.23;;;26.60;59.30;;;;;;4970907;28;20544;-83
2023/06/27 07:25:02;;;;;;;2.23;2.00;;;26.60;59.30;;;;;;4972564;28;20460;-83
2023/06/27 07:27:30;;;;;;;2.83;2.50;;;26.70;59.20;;;;;;4972474;28;20459;-83
2023/06/27 07:29:58;;;;;;;2.00;1.90;;;26.70;58.90;;;;;;4974336;28;20464;-82
2023/06/27 07:32:27;;;;;;;2.00;1.80;;;26.70;59.20;;;;;;4974829;28;20985;-83
2023/06/27 07:34:55;;;;;;;3.07;2.23;;;26.70;59.20;;;;;;4974747;28;20464;-82
2023/06/27 07:37:23;;;;;;;2.20;2.03;;;26.70;58.90;;;;;;4972395;28;20486;-83
2023/06/27 07:39:51;;;;;;;2.07;1.90;;;26.80;59.10;;;;;;4961004;28;20475;-80
2023/06/27 07:42:21;;;;;;;2.47;2.27;;;26.80;58.00;;;;;;4967894;28;20529;-81
2023/06/27 07:44:49;;;;;;;2.60;2.07;;;26.80;59.10;;;;;;4970398;28;20521;-81
2023/06/27 07:47:18;;;;;;;2.80;2.40;;;26.90;59.30;;;;;;4970760;28;20988;-81
2023/06/27 07:49:46;;;;;;;3.00;2.60;;;26.90;59.30;;;;;;4970540;28;20545;-80
2023/06/27 07:52:14;;;;;;;4.87;3.03;;;26.90;59.30;;;;;;4970818;28;20866;-80
2023/06/27 07:54:42;;;;;;;5.77;3.13;;;27.00;59.20;;;;;;4970757;28;20580;-80
2023/06/27 07:57:11;;;;;;;2.43;2.23;;;27.00;59.10;;;;;;4953632;28;20852;-79
2023/06/27 07:59:40;;;;;;;3.50;2.50;;;26.70;56.00;;;;;;4973273;28;20539;-80
2023/06/27 08:02:09;;;;;;;5.73;2.70;;;26.60;59.00;;;;;;4968171;28;20499;-79
2023/06/27 08:04:37;;;;;;;2.30;2.10;;;26.60;59.40;;;;;;4971680;28;20468;-81
2023/06/27 08:07:06;;;;;;;2.50;2.30;;;26.60;59.60;;;;;;4971535;28;20509;-79
2023/06/27 08:09:34;;;;;;;3.00;2.70;;;26.80;58.50;;;;;;4953663;28;20555;-82
2023/06/27 08:12:03;;;;;;;3.83;2.57;;;26.80;59.40;;;;;;4951959;28;20459;-80
2023/06/27 08:14:31;;;;;;;4.30;2.70;;;26.90;59.20;;;;;;4968792;28;20819;-79
2023/06/27 08:17:01;;;;;;;3.63;2.83;;;27.00;59.00;;;;;;4975339;28;20553;-80
2023/06/27 08:19:29;;;;;;;2.87;2.33;;;27.00;55.80;;;;;;4977208;28;20998;-81
2023/06/27 08:21:57;;;;;;;2.40;2.30;;;26.80;57.90;;;;;;4963293;28;20533;-79
2023/06/27 08:24:26;;;;;;;3.83;2.63;;;26.70;56.30;;;;;;4952883;28;20870;-79
2023/06/27 08:26:55;;;;;;;2.33;2.17;;;26.70;57.80;;;;;;4970367;28;20468;-79
2023/06/27 08:29:24;;;;;;;2.50;2.30;;;26.70;58.20;;;;;;4971100;28;20456;-79
2023/06/27 08:31:58;;;;;;;2.83;2.40;;;26.80;58.60;;;;;;4970151;28;20981;-80
2023/06/27 08:34:29;;;;;;;5.53;2.73;;;26.70;55.20;;;;;;4970245;28;20460;-80
2023/06/27 08:36:57;;;;;;;2.37;2.17;;;26.40;54.10;;;;;;4955765;28;20547;-79
2023/06/27 08:39:26;;;;;;;2.50;2.30;;;26.40;56.10;;;;;;4970374;28;20980;-81
2023/06/27 08:41:55;;;;;;;2.17;2.00;;;26.30;54.40;;;;;;4967869;28;20482;-82
2023/06/27 08:44:23;;;;;;;2.70;2.13;;;25.90;54.90;;;;;;4969971;28;20467;-83
2023/06/27 08:46:52;;;;;;;2.87;2.47;;;25.80;56.00;;;;;;4969421;28;20463;-82
2023/06/27 08:49:22;;;;;;;3.03;2.77;;;26.00;58.00;;;;;;4973592;28;20473;-82
2023/06/27 08:51:56;;;;;;;3.53;2.80;;;26.20;58.90;;;;;;4966249;28;20460;-81
2023/06/27 08:54:34;;;;;;;4.10;2.63;;;26.40;56.40;;;;;;4969480;28;20526;-82
2023/06/27 08:57:04;;;;;;;2.40;2.30;;;26.50;56.90;;;;;;4969551;28;20468;-81
2023/06/27 08:59:35;;;;;;;4.80;2.10;;;26.60;57.30;;;;;;4966411;28;20455;-80
2023/06/27 09:02:06;;;;;;;3.00;2.50;;;26.50;54.80;;;;;;4967064;28;21026;-81
2023/06/27 09:04:35;;;;;;;2.37;2.17;;;26.50;57.90;;;;;;4970715;28;20486;-80
2023/06/27 09:07:06;;;;;;;3.50;2.17;;;26.50;57.60;;;;;;4970347;28;20565;-81
2023/06/27 09:09:36;;;;;;;2.37;2.17;;;26.70;57.10;;;;;;4968998;28;21950;-82
2023/06/27 09:12:06;;;;;;;2.60;2.40;;;26.80;58.40;;;;;;4970355;28;20467;-82
2023/06/27 09:14:34;;;;;;;2.20;2.10;;;26.80;55.50;;;;;;4968122;28;20506;-82
2023/06/27 09:17:05;;;;;;;2.77;2.57;;;26.60;55.60;;;;;;4966891;28;20975;-82
2023/06/27 09:19:36;;;;;;;3.73;2.30;;;26.50;55.20;;;;;;4951242;28;21187;-82
2023/06/27 09:22:07;;;;;;;2.47;2.10;;;26.40;55.00;;;;;;4966633;28;20533;-81
2023/06/27 09:24:40;;;;;;;2.50;2.27;;;26.40;58.50;;;;;;4970093;28;20498;-82
2023/06/27 09:27:27;;;;;;;2.50;2.30;;;26.30;56.40;;;;;;4969503;28;20489;-82
2023/06/27 09:29:55;;;;;;;2.70;2.23;;;26.30;55.30;;;;;;4970564;28;20460;-82
2023/06/27 09:32:23;;;;;;;2.13;1.93;;;26.30;56.70;;;;;;4970068;28;20457;-82
2023/06/27 09:34:53;;;;;;;2.40;2.30;;;26.20;55.60;;;;;;4974366;28;20899;-82
2023/06/27 09:37:30;;;;;;;3.03;2.23;;;26.10;56.10;;;;;;4972195;28;20490;-81
2023/06/27 09:40:17;;;;;;;3.33;2.00;;;26.10;56.00;;;;;;4972065;28;20963;-82
2023/06/27 09:42:52;;;;;;;2.60;2.40;;;26.10;56.50;;;;;;4971292;28;20484;-80
2023/06/27 09:45:27;;;;;;;2.53;2.40;;;26.20;56.00;;;;;;4972351;28;20461;-82
2023/06/27 09:47:55;;;;;;;2.73;2.30;;;26.00;56.20;;;;;;4971208;28;21032;-82
2023/06/27 09:50:27;;;;;;;2.53;2.33;;;26.10;55.50;;;;;;4973124;28;20469;-84
2023/06/27 09:52:59;;;;;;;2.90;2.53;;;26.20;56.80;;;;;;4971900;28;20517;-82
2023/06/27 09:55:28;;;;;;;2.17;1.93;;;26.40;57.70;;;;;;4974530;28;20475;-86
2023/06/27 09:57:57;;;;;;;1.80;1.70;;;26.60;57.90;;;;;;4972374;28;21015;-83
2023/06/27 10:00:27;;;;;;;1.90;1.80;;;26.80;57.80;;;;;;4957177;28;20494;-82
2023/06/27 10:02:56;;;;;;;2.63;2.43;;;27.00;57.60;;;;;;4952783;28;20492;-84
2023/06/27 10:05:24;;;;;;;2.00;1.80;;;27.10;57.60;;;;;;4972744;28;20827;-83
2023/06/27 10:08:14;;;;;;;2.57;2.10;;;27.30;57.50;;;;;;4972152;28;20583;-81
2023/06/27 10:10:42;;;;;;;2.20;1.90;;;27.40;57.40;;;;;;4956419;28;20618;-82
2023/06/27 10:13:10;;;;;;;2.50;2.30;;;27.50;57.40;;;;;;4972605;28;20466;-81
2023/06/27 10:15:39;;;;;;;3.03;2.00;;;27.60;57.40;;;;;;4958812;28;21002;-84
2023/06/27 10:18:08;;;;;;;2.00;1.90;;;27.60;57.50;;;;;;4972002;28;20462;-83
2023/06/27 10:20:36;;;;;;;2.27;2.07;;;27.70;57.50;;;;;;4972602;28;20556;-83
2023/06/27 10:23:04;;;;;;;2.23;2.03;;;27.70;57.60;;;;;;4963118;28;20849;-82
2023/06/27 10:25:34;;;;;;;2.50;2.30;;;27.70;57.70;;;;;;4971071;28;20549;-82
2023/06/27 10:28:06;;;;;;;4.80;2.07;;;27.80;57.70;;;;;;4972221;28;20465;-82
2023/06/27 10:30:39;;;;;;;2.20;2.10;;;27.80;57.90;;;;;;4971919;28;20466;-83
2023/06/27 10:33:22;;;;;;;1.90;1.80;;;27.80;57.80;;;;;;4959337;28;20459;-82
2023/06/27 10:35:51;;;;;;;2.20;2.00;;;27.90;57.80;;;;;;4977609;28;20521;-82
2023/06/27 10:38:20;;;;;;;2.70;2.50;;;27.90;57.70;;;;;;4972319;28;20464;-84
2023/06/27 10:41:11;;;;;;;2.33;2.13;;;27.90;57.80;;;;;;4972175;28;20462;-83
2023/06/27 10:43:48;;;;;;;2.53;2.33;;;27.90;57.80;;;;;;4969507;28;20469;-80
2023/06/27 10:46:19;;;;;;;2.00;1.90;;;28.00;57.80;;;;;;4971832;28;20559;-83
2023/06/27 10:48:48;;;;;;;2.90;2.50;;;28.00;57.80;;;;;;4973889;28;20497;-82
2023/06/27 10:51:18;;;;;;;2.13;2.00;;;28.00;57.80;;;;;;4972172;28;20465;-83
2023/06/27 10:54:12;;;;;;;2.50;2.30;;;27.90;58.00;;;;;;4972308;28;20557;-82
2023/06/27 10:56:43;;;;;;;2.23;2.13;;;28.00;58.00;;;;;;4977760;28;20461;-83
2023/06/27 10:59:13;;;;;;;2.23;2.03;;;28.00;58.00;;;;;;4970732;28;20472;-84
2023/06/27 11:01:50;;;;;;;2.27;2.17;;;28.00;58.10;;;;;;4970273;28;20480;-84
2023/06/27 11:04:20;;;;;;;2.30;2.20;;;28.00;58.00;;;;;;4970592;28;22241;-82
2023/06/27 11:06:49;;;;;;;3.10;2.30;;;28.00;58.10;;;;;;4971646;28;20485;-82
2023/06/27 11:09:18;;;;;;;2.80;1.90;;;28.00;58.00;;;;;;4970363;28;20458;-84
2023/06/27 11:11:55;;;;;;;1.87;1.77;;;28.00;57.90;;;;;;4969167;28;20808;-82
2023/06/27 11:14:35;;;;;;;2.27;2.07;;;28.10;58.10;;;;;;4971637;28;20461;-82
2023/06/27 11:17:04;;;;;;;2.60;2.40;;;28.10;58.30;;;;;;4968781;28;20467;-83
2023/06/27 11:19:33;;;;;;;4.30;2.37;;;28.10;58.10;;;;;;4972017;28;20472;-82
2023/06/27 11:22:02;;;;;;;2.33;2.23;;;28.10;58.10;;;;;;4971515;28;20479;-83
2023/06/27 11:24:30;;;;;;;2.80;2.27;;;28.10;58.00;;;;;;4965150;28;20479;-83
2023/06/27 11:27:01;;;;;;;2.67;2.37;;;28.10;58.10;;;;;;4971414;28;20513;-83
2023/06/27 11:29:29;;;;;;;2.40;2.27;;;28.10;58.00;;;;;;4969453;28;20469;-84
2023/06/27 11:31:57;;;;;;;1.93;1.83;;;28.10;58.00;;;;;;4966524;28;20507;-81
2023/06/27 11:34:26;;;;;;;2.10;2.00;;;28.10;58.00;;;;;;4966574;28;20515;-85
2023/06/27 11:36:54;;;;;;;1.83;1.70;;;28.10;58.00;;;;;;4968705;28;20818;-88
2023/06/27 11:39:23;;;;;;;1.53;1.50;;;28.10;57.80;;;;;;4969798;28;21001;-86
2023/06/27 11:41:54;;;;;;;2.70;2.50;;;28.10;57.70;;;;;;4970897;28;20516;-87
2023/06/27 11:44:31;;;;;;;3.83;2.30;;;28.20;57.80;;;;;;4972070;28;20477;-86
2023/06/27 11:47:00;;;;;;;2.23;1.70;;;28.20;57.80;;;;;;4968542;28;21420;-86
2023/06/27 11:49:29;;;;;;;2.53;2.33;;;28.20;57.80;;;;;;4968574;28;20473;-85
2023/06/27 11:52:01;;;;;;;2.23;2.03;;;28.20;57.70;;;;;;4970620;28;20459;-86
2023/06/27 11:54:30;;;;;;;2.40;2.20;;;28.20;57.80;;;;;;4969866;28;20466;-84
2023/06/27 11:57:02;;;;;;;2.13;2.00;;;28.20;57.70;;;;;;4964453;28;21536;-83
2023/06/27 11:59:32;;;;;;;2.40;2.30;;;28.20;57.70;;;;;;4971859;28;20467;-83
2023/06/27 12:02:03;;;;;;;2.00;1.90;;;28.20;57.60;;;;;;4965842;28;20511;-83
2023/06/27 12:04:31;;;;;;;2.20;2.10;;;28.20;57.60;;;;;;4973303;28;20457;-80
2023/06/27 12:07:19;;;;;;;2.43;2.20;;;28.20;57.50;;;;;;4956429;28;20506;-83
2023/06/27 12:10:03;;;;;;;1.90;1.80;;;28.30;57.70;;;;;;4971578;28;20870;-83
2023/06/27 12:12:36;;;;;;;2.20;2.10;;;28.30;57.80;;;;;;4967245;28;20962;-82
2023/06/27 12:15:15;;;;;;;2.10;2.00;;;28.30;57.90;;;;;;4970958;28;20516;-84
2023/06/27 12:17:57;;;;;;;2.17;2.07;;;28.40;57.80;;;;;;4967951;28;20471;-84
2023/06/27 12:20:26;;;;;;;2.50;2.30;;;28.50;57.70;;;;;;4972514;28;20472;-81
2023/06/27 12:22:54;;;;;;;2.20;2.10;;;28.60;57.50;;;;;;4970709;28;20480;-84
2023/06/27 12:25:23;;;;;;;2.10;2.00;;;28.70;57.40;;;;;;4966827;28;20990;-84
2023/06/27 12:27:51;;;;;;;2.17;2.00;;;28.80;57.30;;;;;;4970022;28;20537;-82
2023/06/27 12:30:20;;;;;;;2.30;2.10;;;28.90;57.20;;;;;;4968826;28;20469;-82
2023/06/27 12:32:48;;;;;;;2.33;2.17;;;28.90;57.20;;;;;;4970209;28;20969;-82
2023/06/27 12:35:17;;;;;;;2.30;2.20;;;28.90;57.10;;;;;;4969029;28;20520;-83
2023/06/27 12:37:46;;;;;;;2.50;2.40;;;28.90;56.80;;;;;;4969014;28;20524;-83
2023/06/27 12:40:16;;;;;;;2.80;2.40;;;29.00;56.50;;;;;;4970722;28;20555;-83
2023/06/27 12:42:46;;;;;;;2.60;2.40;;;29.00;56.60;;;;;;4970210;28;20485;-83
2023/06/27 12:45:14;;;;;;;2.73;2.53;;;29.00;56.50;;;;;;4966318;28;20481;-83
2023/06/27 12:47:45;;;;;;;2.27;2.17;;;29.00;56.50;;;;;;4968900;28;20480;-83
2023/06/27 12:50:16;;;;;;;2.80;2.50;;;29.00;56.50;;;;;;4968692;28;20462;-83
2023/06/27 12:52:47;;;;;;;2.13;2.03;;;29.10;56.40;;;;;;4968371;28;20774;-83
2023/06/27 12:55:16;;;;;;;3.23;2.47;;;29.10;56.40;;;;;;4967732;28;20461;-83
2023/06/27 12:57:45;;;;;;;2.40;2.20;;;29.10;56.30;;;;;;4971841;28;20956;-83
2023/06/27 13:00:19;;;;;;;4.10;2.77;;;29.10;56.20;;;;;;4966690;28;20469;-84
2023/06/27 13:02:49;;;;;;;2.37;2.27;;;29.10;56.20;;;;;;4964813;28;20568;-83
2023/06/27 13:05:31;;;;;;;2.87;2.43;;;29.00;56.20;;;;;;4977853;28;20443;-83